Time;durP1;ratioP1;P1;durP2;ratioP2;P2;SDS_P1;SDS_P2;PMS_P1;PMS_P2;Temp;Humidity;BMP_temperature;BMP_pressure;BME280_temperature;BME280_humidity;BME280_pressure;Samples;Min_cycle;Max_cycle;Signal;HPM_P1;HPM_P2
2021/07/11 00:00:43;;;;;;;1.63;0.98;;;;;;;22.91;54.29;96380.97;4969178;28;20522;-52
2021/07/11 00:03:09;;;;;;;2.25;0.85;;;;;;;22.90;53.97;96375.97;4968912;28;20481;-52
2021/07/11 00:05:34;;;;;;;1.90;1.00;;;;;;;22.89;54.44;96380.50;4968835;28;20034;-52
2021/07/11 00:07:59;;;;;;;1.35;0.60;;;;;;;22.89;53.98;96374.41;4983689;28;20080;-53
2021/07/11 00:10:25;;;;;;;1.33;1.00;;;;;;;22.89;54.00;96379.75;4988062;28;20470;-52
2021/07/11 00:12:51;;;;;;;1.33;1.00;;;;;;;22.88;54.14;96370.19;4987789;28;20054;-52
2021/07/11 00:15:18;;;;;;;3.45;0.93;;;;;;;22.88;54.45;96373.63;4986435;28;20038;-52
2021/07/11 00:17:44;;;;;;;1.05;0.88;;;;;;;22.86;54.31;96370.50;4980746;28;20038;-52
2021/07/11 00:20:11;;;;;;;0.70;0.70;;;;;;;22.85;54.00;96366.25;4987997;28;20077;-52
2021/07/11 00:22:36;;;;;;;1.05;0.80;;;;;;;22.85;54.16;96363.59;4987635;28;20038;-53
2021/07/11 00:25:03;;;;;;;3.28;1.00;;;;;;;22.84;54.43;96364.72;4987572;28;20109;-52
2021/07/11 00:27:29;;;;;;;2.22;1.20;;;;;;;22.84;54.29;96361.25;4987156;28;20446;-52
2021/07/11 00:29:54;;;;;;;1.38;1.05;;;;;;;22.82;54.30;96364.28;4987951;28;20026;-52
2021/07/11 00:32:20;;;;;;;1.13;0.88;;;;;;;22.82;54.10;96366.94;4987177;28;20034;-52
2021/07/11 00:34:45;;;;;;;1.90;0.90;;;;;;;22.81;53.98;96365.38;4987429;28;20030;-52
2021/07/11 00:37:10;;;;;;;0.90;0.70;;;;;;;22.80;54.21;96361.16;4987522;28;20046;-52
2021/07/11 00:39:36;;;;;;;1.95;0.90;;;;;;;22.80;53.90;96360.34;4988000;28;20029;-52
2021/07/11 00:42:01;;;;;;;1.10;0.63;;;;;;;22.78;54.45;96358.03;4987730;28;20383;-52
2021/07/11 00:44:27;;;;;;;1.80;0.90;;;;;;;22.78;54.09;96351.91;4986468;28;20025;-52
2021/07/11 00:46:52;;;;;;;1.45;0.90;;;;;;;22.78;54.40;96366.06;4987209;28;20026;-52
2021/07/11 00:49:18;;;;;;;0.75;0.70;;;;;;;22.77;54.40;96351.13;4987294;28;20037;-52
2021/07/11 00:51:43;;;;;;;1.17;0.90;;;;;;;22.76;54.32;96352.25;4987414;28;20022;-53
2021/07/11 00:54:08;;;;;;;2.20;0.90;;;;;;;22.76;54.23;96348.78;4986924;28;20029;-52
2021/07/11 00:56:34;;;;;;;1.75;0.85;;;;;;;22.75;54.48;96350.69;4987006;28;20031;-52
2021/07/11 00:58:59;;;;;;;1.65;0.90;;;;;;;22.74;54.33;96341.88;4987302;28;20034;-52
2021/07/11 01:01:37;;;;;;;1.75;0.80;;;;;;;22.74;54.28;96343.78;4987198;28;20030;-52
2021/07/11 01:04:07;;;;;;;0.75;0.70;;;;;;;22.74;54.24;96335.78;5018727;28;20029;-52
2021/07/11 01:06:34;;;;;;;1.95;0.90;;;;;;;22.73;54.24;96332.28;4985940;28;20906;-52
2021/07/11 01:09:01;;;;;;;1.83;0.70;;;;;;;22.72;54.39;96325.41;4987510;28;20041;-52
2021/07/11 01:11:28;;;;;;;1.15;0.80;;;;;;;22.72;54.58;96321.97;4985905;28;20026;-52
2021/07/11 01:13:54;;;;;;;1.42;0.77;;;;;;;22.71;54.58;96307.78;4986226;28;20462;-52
2021/07/11 01:16:24;;;;;;;1.42;0.73;;;;;;;22.71;54.53;96309.69;5011743;28;20046;-52
2021/07/11 01:18:50;;;;;;;1.17;0.75;;;;;;;22.70;54.44;96308.16;4985737;28;20035;-52
2021/07/11 01:21:16;;;;;;;1.95;0.90;;;;;;;22.70;54.48;96297.44;4985750;28;20022;-52
2021/07/11 01:24:07;;;;;;;4.10;0.90;;;;;;;22.69;54.53;96295.88;4987034;28;20038;-52
2021/07/11 01:26:33;;;;;;;1.02;0.75;;;;;;;22.68;54.55;96303.13;4986190;28;20057;-52
2021/07/11 01:28:58;;;;;;;1.52;0.80;;;;;;;22.67;54.48;96306.13;4986959;28;20407;-52
2021/07/11 01:31:24;;;;;;;3.58;0.90;;;;;;;22.67;54.38;96306.13;5002509;28;20110;-52
2021/07/11 01:33:50;;;;;;;1.92;0.75;;;;;;;22.66;54.59;96304.59;4986924;28;20482;-52
2021/07/11 01:36:16;;;;;;;0.70;0.70;;;;;;;22.65;54.75;96303.03;4985253;28;20030;-52
2021/07/11 01:38:42;;;;;;;0.82;0.63;;;;;;;22.65;54.30;96300.34;5017983;28;20062;-51
2021/07/11 01:41:08;;;;;;;1.02;0.80;;;;;;;22.66;54.72;96301.91;4986831;28;20149;-52
2021/07/11 01:43:34;;;;;;;1.85;0.80;;;;;;;22.65;54.60;96306.47;4987154;28;20034;-52
2021/07/11 01:46:00;;;;;;;2.97;1.00;;;;;;;22.64;54.45;96301.47;4987170;28;20598;-52
2021/07/11 01:48:25;;;;;;;1.38;0.80;;;;;;;22.63;54.65;96307.94;4985681;28;20607;-52
2021/07/11 01:50:52;;;;;;;4.07;0.70;;;;;;;22.63;54.68;96314.03;4986678;28;20034;-52
2021/07/11 01:53:21;;;;;;;1.27;0.80;;;;;;;22.63;54.50;96302.56;4985114;28;20037;-52
2021/07/11 01:55:46;;;;;;;2.33;0.75;;;;;;;22.62;54.68;96303.72;4986755;28;20076;-53
2021/07/11 01:58:12;;;;;;;0.60;0.60;;;;;;;22.61;54.58;96310.16;5018465;28;20022;-52
2021/07/11 02:00:37;;;;;;;2.85;1.00;;;;;;;22.61;54.62;96315.50;4989258;28;20030;-53
2021/07/11 02:03:02;;;;;;;1.90;0.90;;;;;;;22.60;54.56;96308.63;4990261;28;20022;-52
2021/07/11 02:05:28;;;;;;;1.45;0.80;;;;;;;22.59;54.60;96310.47;4989631;28;20713;-52
2021/07/11 02:07:53;;;;;;;1.60;1.00;;;;;;;22.59;54.73;96312.38;4989402;28;20042;-52
2021/07/11 02:10:19;;;;;;;0.70;0.70;;;;;;;22.57;54.35;96307.38;4989813;28;20038;-54
2021/07/11 02:12:53;;;;;;;3.33;0.98;;;;;;;22.57;54.42;96312.72;4990025;28;20038;-52
2021/07/11 02:15:19;;;;;;;4.40;0.95;;;;;;;22.57;54.73;96312.72;5005387;28;20038;-53
2021/07/11 02:17:46;;;;;;;1.95;1.10;;;;;;;22.56;54.39;96305.81;4982791;28;20042;-53
2021/07/11 02:20:11;;;;;;;1.67;0.82;;;;;;;22.56;54.39;96310.38;5021079;28;20064;-53
2021/07/11 02:22:47;;;;;;;2.25;0.90;;;;;;;22.55;54.53;96301.59;5021181;28;20057;-52
2021/07/11 02:25:15;;;;;;;1.00;0.90;;;;;;;22.53;54.71;96304.59;4989420;28;20120;-52
2021/07/11 02:27:42;;;;;;;1.48;1.10;;;;;;;22.54;54.80;96302.72;4989667;28;20486;-52
2021/07/11 02:30:13;;;;;;;1.38;0.80;;;;;;;22.51;54.53;96296.13;4988510;28;20101;-52
2021/07/11 02:32:43;;;;;;;2.72;1.10;;;;;;;22.52;54.51;96300.38;4989508;28;20029;-53
2021/07/11 02:35:09;;;;;;;2.08;1.02;;;;;;;22.51;54.37;96296.13;4989463;28;20499;-53
2021/07/11 02:37:34;;;;;;;2.40;0.82;;;;;;;22.51;54.68;96287.34;4988587;28;20038;-53
2021/07/11 02:39:59;;;;;;;0.90;0.80;;;;;;;22.50;54.44;96289.22;4988484;28;20033;-53
2021/07/11 02:42:25;;;;;;;3.17;1.30;;;;;;;22.49;54.47;96287.66;4989755;28;20089;-55
2021/07/11 02:44:52;;;;;;;4.03;1.20;;;;;;;22.49;54.38;96289.56;4988001;28;20026;-55
2021/07/11 02:47:23;;;;;;;5.97;1.17;;;;;;;22.48;54.51;96288.78;4989290;28;20464;-54
2021/07/11 02:49:50;;;;;;;3.85;0.90;;;;;;;22.46;54.43;96291.03;4988213;28;20027;-54
2021/07/11 02:52:15;;;;;;;4.55;1.00;;;;;;;22.47;54.70;96289.13;4987981;28;20123;-54
2021/07/11 02:55:09;;;;;;;3.53;0.95;;;;;;;22.46;54.65;96285.69;4986817;28;20022;-55
2021/07/11 02:57:35;;;;;;;1.50;0.85;;;;;;;22.45;54.33;96281.44;4989317;28;20120;-52
2021/07/11 03:00:00;;;;;;;3.80;1.05;;;;;;;22.45;54.52;96284.09;5020786;28;20261;-52
2021/07/11 03:02:26;;;;;;;2.35;0.90;;;;;;;22.43;54.44;96281.00;4988997;28;20403;-52
2021/07/11 03:04:52;;;;;;;3.08;1.20;;;;;;;22.44;54.27;96289.81;4987719;28;20026;-52
2021/07/11 03:07:17;;;;;;;1.35;1.00;;;;;;;22.43;54.62;96282.91;4988531;28;20041;-52
2021/07/11 03:09:43;;;;;;;2.47;1.20;;;;;;;22.43;54.50;96282.91;4988872;28;20594;-52
2021/07/11 03:12:09;;;;;;;2.92;1.20;;;;;;;22.42;54.40;96279.44;4988350;28;20498;-52
2021/07/11 03:14:35;;;;;;;2.08;1.10;;;;;;;22.42;54.68;96292.03;5020221;28;20085;-52
2021/07/11 03:17:01;;;;;;;4.97;1.20;;;;;;;22.41;54.38;96290.47;4987013;28;20054;-53
2021/07/11 03:19:27;;;;;;;1.67;0.80;;;;;;;22.40;54.17;96288.94;4987722;28;20026;-52
2021/07/11 03:21:52;;;;;;;1.73;0.98;;;;;;;22.39;54.49;96290.81;5020840;28;20038;-52
2021/07/11 03:24:20;;;;;;;3.63;1.10;;;;;;;22.39;54.45;96282.00;4987473;28;20037;-52
2021/07/11 03:26:45;;;;;;;1.35;1.10;;;;;;;22.38;54.34;96280.47;4971660;28;20034;-52
2021/07/11 03:29:17;;;;;;;3.33;1.13;;;;;;;22.37;54.70;96277.00;4988613;28;20026;-52
2021/07/11 03:31:42;;;;;;;1.23;1.13;;;;;;;22.36;54.44;96277.34;4988867;28;20046;-52
2021/07/11 03:34:08;;;;;;;1.73;0.90;;;;;;;22.34;54.46;96275.78;4986624;28;20034;-52
2021/07/11 03:36:33;;;;;;;1.42;1.30;;;;;;;22.34;54.43;96285.69;4988445;28;20340;-53
2021/07/11 03:39:00;;;;;;;1.55;1.10;;;;;;;22.33;54.39;96286.78;4988523;28;20027;-52
2021/07/11 03:41:30;;;;;;;2.13;1.02;;;;;;;22.33;54.68;96286.78;4987317;28;20330;-52
2021/07/11 03:43:57;;;;;;;3.35;1.20;;;;;;;22.31;54.38;96281.78;4988978;28;20076;-52
2021/07/11 03:46:25;;;;;;;2.42;1.35;;;;;;;22.30;54.67;96280.25;4988137;28;20027;-53
2021/07/11 03:48:53;;;;;;;1.75;1.38;;;;;;;22.29;54.37;96284.00;4987097;28;20125;-52
2021/07/11 03:51:22;;;;;;;5.00;1.13;;;;;;;22.28;54.42;96282.47;4986868;28;20054;-53
2021/07/11 03:53:48;;;;;;;3.58;0.90;;;;;;;22.27;54.40;96275.56;4988371;28;20109;-52
2021/07/11 03:56:13;;;;;;;3.15;0.90;;;;;;;22.26;54.22;96271.34;4988238;28;20034;-52
2021/07/11 03:58:40;;;;;;;1.52;0.80;;;;;;;22.26;54.25;96270.56;5019841;28;20018;-52
2021/07/11 04:01:05;;;;;;;2.15;1.10;;;;;;;22.25;54.39;96277.00;4987234;28;20035;-52
2021/07/11 04:03:31;;;;;;;3.22;1.30;;;;;;;22.24;54.61;96283.47;4987232;28;20036;-52
2021/07/11 04:05:56;;;;;;;2.92;1.10;;;;;;;22.23;54.75;96284.56;4988757;28;20590;-52
2021/07/11 04:08:22;;;;;;;1.45;1.00;;;;;;;22.22;54.44;96283.00;4986444;28;20034;-52
2021/07/11 04:10:47;;;;;;;2.40;1.10;;;;;;;22.23;54.56;96292.56;4970987;28;20030;-52
2021/07/11 04:13:13;;;;;;;3.25;1.23;;;;;;;22.20;54.57;96287.91;4987889;28;20053;-52
2021/07/11 04:15:39;;;;;;;2.63;1.00;;;;;;;22.19;54.31;96283.66;4985804;28;20514;-52
2021/07/11 04:18:06;;;;;;;2.22;1.08;;;;;;;22.18;54.59;96288.22;4980573;28;20026;-52
2021/07/11 04:20:32;;;;;;;1.10;1.00;;;;;;;22.17;54.67;96289.34;4987808;28;20026;-52
2021/07/11 04:22:58;;;;;;;3.80;1.25;;;;;;;22.17;54.58;96286.66;4987498;28;20360;-52
2021/07/11 04:25:23;;;;;;;1.67;1.02;;;;;;;22.17;54.46;96291.22;4986701;28;20457;-52
2021/07/11 04:27:49;;;;;;;1.33;1.00;;;;;;;22.16;54.72;96287.78;4986653;28;20026;-52
2021/07/11 04:30:15;;;;;;;2.88;1.00;;;;;;;22.15;54.63;96291.56;5002289;28;20056;-53
2021/07/11 04:32:41;;;;;;;1.20;1.10;;;;;;;22.14;54.36;96298.81;4986297;28;20557;-52
2021/07/11 04:35:07;;;;;;;1.75;1.15;;;;;;;22.13;54.36;96296.47;4986047;28;20034;-52
2021/07/11 04:37:33;;;;;;;3.05;1.45;;;;;;;22.13;54.56;96307.94;4987542;28;20029;-52
2021/07/11 04:39:58;;;;;;;1.45;1.10;;;;;;;22.12;54.55;96298.34;4987559;28;20161;-53
2021/07/11 04:42:24;;;;;;;1.83;1.15;;;;;;;22.11;54.48;96302.16;4987488;28;20038;-53
2021/07/11 04:44:50;;;;;;;1.70;1.02;;;;;;;22.11;54.35;96298.69;4987431;28;20033;-52
2021/07/11 04:47:16;;;;;;;2.28;1.20;;;;;;;22.11;54.34;96299.50;4987321;28;20850;-52
2021/07/11 04:49:41;;;;;;;6.30;1.60;;;;;;;22.11;54.71;96301.34;4987731;28;20029;-53
2021/07/11 04:52:07;;;;;;;3.42;1.35;;;;;;;22.10;54.73;96292.56;4986523;28;20491;-53
2021/07/11 04:54:33;;;;;;;7.00;2.13;;;;;;;22.10;54.74;96297.16;4986902;28;20057;-53
2021/07/11 04:56:59;;;;;;;9.30;2.22;;;;;;;22.09;54.48;96291.03;4987066;28;20060;-52
2021/07/11 04:59:24;;;;;;;5.93;1.85;;;;;;;22.09;54.62;96284.88;4986773;28;20499;-53
2021/07/11 05:01:50;;;;;;;3.47;1.83;;;;;;;22.09;54.63;96283.00;4986842;28;20030;-52
2021/07/11 05:04:15;;;;;;;5.15;1.95;;;;;;;22.09;54.74;96283.00;4986895;28;20026;-53
2021/07/11 05:06:41;;;;;;;5.93;2.17;;;;;;;22.07;54.51;96274.56;4987338;28;20058;-52
2021/07/11 05:09:06;;;;;;;3.47;2.03;;;;;;;22.08;54.68;96273.44;4987156;28;20030;-52
2021/07/11 05:11:32;;;;;;;5.60;2.33;;;;;;;22.09;54.66;96271.53;4987008;28;20379;-52
2021/07/11 05:13:57;;;;;;;4.97;2.53;;;;;;;22.08;54.75;96267.31;4987382;28;20109;-53
2021/07/11 05:16:23;;;;;;;6.30;2.83;;;;;;;22.06;54.58;96270.31;4986395;28;20034;-52
2021/07/11 05:18:48;;;;;;;4.65;2.63;;;;;;;22.06;54.43;96272.97;4987255;28;20030;-53
2021/07/11 05:21:14;;;;;;;6.60;2.92;;;;;;;22.06;54.81;96275.66;4986968;28;20049;-52
2021/07/11 05:23:39;;;;;;;3.80;2.83;;;;;;;22.06;54.82;96274.88;4987337;28;20027;-52
2021/07/11 05:26:05;;;;;;;4.93;2.67;;;;;;;22.05;54.55;96266.06;4987210;28;20053;-53
2021/07/11 05:28:30;;;;;;;5.15;2.58;;;;;;;22.05;54.63;96271.41;4987484;28;20399;-53
2021/07/11 05:30:56;;;;;;;7.95;2.65;;;;;;;22.05;54.53;96276.75;4987754;28;20049;-54
2021/07/11 05:33:21;;;;;;;6.82;2.78;;;;;;;22.05;54.73;96273.31;4987430;28;20037;-54
2021/07/11 05:35:47;;;;;;;8.10;4.50;;;;;;;22.05;54.86;96270.63;4990970;28;20464;-54
2021/07/11 05:38:12;;;;;;;11.38;3.70;;;;;;;22.05;55.07;96262.63;4990144;28;20551;-53
2021/07/11 05:40:37;;;;;;;8.23;5.20;;;;;;;22.04;55.37;96275.22;4988912;28;20029;-54
2021/07/11 05:43:03;;;;;;;8.35;3.42;;;;;;;22.03;55.46;96270.97;4990399;28;20041;-54
2021/07/11 05:45:28;;;;;;;6.50;3.88;;;;;;;22.04;55.32;96261.09;4989631;28;20384;-53
2021/07/11 05:47:54;;;;;;;10.30;3.88;;;;;;;22.03;55.33;96270.97;4990547;28;20237;-54
2021/07/11 05:50:19;;;;;;;7.45;3.40;;;;;;;22.04;55.46;96266.44;4989627;28;20031;-54
2021/07/11 05:52:45;;;;;;;10.73;4.10;;;;;;;22.04;55.40;96266.44;4990088;28;20085;-55
2021/07/11 05:55:11;;;;;;;8.43;3.42;;;;;;;22.05;55.23;96267.97;4989809;28;20031;-55
2021/07/11 05:57:36;;;;;;;4.90;3.55;;;;;;;22.04;55.00;96261.84;4990047;28;20398;-52
2021/07/11 06:00:06;;;;;;;10.20;4.07;;;;;;;22.05;55.23;96274.09;4990570;28;20030;-53
2021/07/11 06:02:31;;;;;;;6.25;4.60;;;;;;;22.05;55.33;96273.31;4990343;28;20033;-53
2021/07/11 06:04:57;;;;;;;7.38;3.72;;;;;;;22.04;55.29;96269.88;4990611;28;20038;-53
2021/07/11 06:07:22;;;;;;;7.55;4.00;;;;;;;22.04;55.45;96275.22;4988891;28;20546;-53
2021/07/11 06:09:48;;;;;;;7.35;4.43;;;;;;;22.05;55.52;96270.63;4989347;28;20034;-53
2021/07/11 06:12:15;;;;;;;5.40;4.22;;;;;;;22.05;55.27;96266.06;4989772;28;20025;-53
2021/07/11 06:14:41;;;;;;;8.77;3.92;;;;;;;22.04;55.23;96272.53;4989733;28;20022;-52
2021/07/11 06:17:06;;;;;;;5.28;3.55;;;;;;;22.04;55.12;96275.22;5011142;28;20029;-53
2021/07/11 06:19:32;;;;;;;4.57;3.65;;;;;;;22.05;55.37;96279.44;4988676;28;20034;-53
2021/07/11 06:21:57;;;;;;;7.93;4.28;;;;;;;22.05;55.28;96276.75;4988077;28;20036;-53
2021/07/11 06:24:23;;;;;;;7.32;3.80;;;;;;;22.05;55.31;96276.75;4968848;28;20022;-53
2021/07/11 06:26:48;;;;;;;7.78;4.40;;;;;;;22.06;55.56;96285.56;4972594;28;20046;-53
2021/07/11 06:29:13;;;;;;;5.18;3.60;;;;;;;22.05;55.59;96284.00;4973650;28;20034;-53
2021/07/11 06:31:39;;;;;;;7.53;3.83;;;;;;;22.06;55.39;96281.00;4976955;28;20030;-53
2021/07/11 06:34:04;;;;;;;6.50;3.80;;;;;;;22.06;55.30;96289.00;4977264;28;20038;-53
2021/07/11 06:36:32;;;;;;;6.25;3.92;;;;;;;22.07;55.76;96287.91;4988773;28;20034;-53
2021/07/11 06:39:06;;;;;;;5.32;3.80;;;;;;;22.07;55.67;96293.25;4989488;28;20121;-52
2021/07/11 06:41:32;;;;;;;4.13;3.70;;;;;;;22.07;55.50;96290.59;4989367;28;20165;-53
2021/07/11 06:43:58;;;;;;;6.43;3.90;;;;;;;22.08;55.85;96294.03;4989311;28;20438;-53
2021/07/11 06:46:23;;;;;;;4.28;3.85;;;;;;;22.09;55.80;96285.69;4989602;28;20085;-53
2021/07/11 06:48:48;;;;;;;6.47;4.05;;;;;;;22.09;55.88;96290.22;4989263;28;20600;-53
2021/07/11 06:51:14;;;;;;;10.15;4.13;;;;;;;22.10;56.21;96297.16;4988949;28;20426;-53
2021/07/11 06:53:40;;;;;;;11.35;4.18;;;;;;;22.10;56.17;96297.91;4989690;28;20441;-52
2021/07/11 06:56:05;;;;;;;16.23;4.35;;;;;;;22.10;56.27;96299.81;4988661;28;20035;-53
2021/07/11 06:58:31;;;;;;;20.83;4.70;;;;;;;22.10;56.28;96305.94;4989214;28;20491;-53
2021/07/11 07:00:56;;;;;;;18.48;4.30;;;;;;;22.10;56.63;96308.59;4987786;28;20486;-53
2021/07/11 07:03:22;;;;;;;17.98;4.88;;;;;;;22.11;56.60;96304.03;4972289;28;20022;-53
2021/07/11 07:05:47;;;;;;;13.15;4.43;;;;;;;22.11;56.54;96304.81;4989182;28;20027;-53
2021/07/11 07:08:13;;;;;;;8.57;3.47;;;;;;;22.12;56.50;96303.69;4988884;28;20019;-53
2021/07/11 07:10:38;;;;;;;10.07;3.38;;;;;;;22.12;56.50;96303.69;4988909;28;20394;-53
2021/07/11 07:13:04;;;;;;;10.05;3.97;;;;;;;22.12;56.34;96306.38;4988722;28;20037;-52
2021/07/11 07:15:29;;;;;;;11.30;3.92;;;;;;;22.12;56.31;96301.03;4988289;28;20092;-52
2021/07/11 07:17:54;;;;;;;10.63;3.90;;;;;;;22.12;56.54;96301.03;4985047;28;20494;-53
2021/07/11 07:20:20;;;;;;;6.70;3.47;;;;;;;22.12;56.50;96297.59;4982002;28;20022;-53
2021/07/11 07:22:45;;;;;;;11.43;3.65;;;;;;;22.11;56.58;96296.00;4988871;28;20501;-53
2021/07/11 07:25:13;;;;;;;9.93;3.58;;;;;;;22.09;56.61;96279.53;4989041;28;20030;-53
2021/07/11 07:27:39;;;;;;;9.52;3.50;;;;;;;22.08;56.62;96278.78;4988815;28;20023;-52
2021/07/11 07:30:05;;;;;;;5.53;3.20;;;;;;;22.08;56.61;96288.69;4988101;28;20034;-52
2021/07/11 07:32:30;;;;;;;11.82;3.50;;;;;;;22.05;56.63;96287.44;4986137;28;20062;-52
2021/07/11 07:34:56;;;;;;;6.75;3.50;;;;;;;22.06;56.50;96290.91;4987315;28;20037;-52
2021/07/11 07:37:21;;;;;;;9.65;3.67;;;;;;;22.06;56.58;96289.00;4986330;28;20030;-52
2021/07/11 07:39:47;;;;;;;8.18;3.58;;;;;;;22.06;56.46;96294.34;4988030;28;20041;-52
2021/07/11 07:42:12;;;;;;;5.10;3.10;;;;;;;22.06;56.32;96289.00;4988150;28;20030;-53
2021/07/11 07:44:38;;;;;;;5.75;2.75;;;;;;;22.06;55.97;96291.69;4988259;28;20039;-52
2021/07/11 07:47:03;;;;;;;7.43;3.75;;;;;;;22.06;56.15;96281.00;4988223;28;20033;-52
2021/07/11 07:49:29;;;;;;;10.60;3.80;;;;;;;22.07;55.79;96293.25;4987986;28;20137;-52
2021/07/11 07:51:54;;;;;;;5.15;3.10;;;;;;;22.07;55.83;96282.56;4988640;28;20047;-52
2021/07/11 07:54:20;;;;;;;7.15;2.88;;;;;;;22.08;55.73;96280.66;4987923;28;20094;-52
2021/07/11 07:56:45;;;;;;;4.80;2.80;;;;;;;22.07;55.92;96279.91;4987203;28;20093;-52
2021/07/11 07:59:10;;;;;;;3.35;2.67;;;;;;;22.08;55.95;96278.00;4988101;28;20026;-52
2021/07/11 08:01:38;;;;;;;3.85;3.05;;;;;;;22.08;55.94;96278.78;4986574;28;20030;-53
2021/07/11 08:04:04;;;;;;;3.83;3.10;;;;;;;22.08;55.82;96288.69;4988043;28;20034;-51
2021/07/11 08:06:30;;;;;;;5.45;2.85;;;;;;;22.08;55.68;96284.13;4987686;28;20037;-52
2021/07/11 08:08:56;;;;;;;3.70;2.90;;;;;;;22.08;55.90;96280.66;4988056;28;20085;-53
2021/07/11 08:11:21;;;;;;;6.07;3.13;;;;;;;22.09;55.60;96272.34;4987589;28;20030;-52
2021/07/11 08:13:47;;;;;;;7.13;3.42;;;;;;;22.09;55.92;96267.00;4986860;28;20030;-53
2021/07/11 08:16:12;;;;;;;7.45;3.40;;;;;;;22.10;56.25;96262.41;4982122;28;20515;-54
2021/07/11 08:18:38;;;;;;;4.80;3.00;;;;;;;22.09;56.07;96264.31;4985045;28;20034;-52
2021/07/11 08:21:03;;;;;;;5.05;2.83;;;;;;;22.10;56.19;96262.41;4988003;28;20030;-52
2021/07/11 08:23:29;;;;;;;6.30;2.72;;;;;;;22.09;56.03;96266.19;4987321;28;20041;-52
2021/07/11 08:25:54;;;;;;;5.10;2.80;;;;;;;22.10;56.05;96267.75;4988163;28;20030;-53
2021/07/11 08:28:19;;;;;;;5.40;2.85;;;;;;;22.11;55.77;96266.63;4987595;28;20031;-52
2021/07/11 08:30:45;;;;;;;4.55;2.80;;;;;;;22.10;55.90;96270.44;4987625;28;20041;-53
2021/07/11 08:33:10;;;;;;;3.63;2.95;;;;;;;22.10;55.83;96265.09;4987597;28;20084;-54
2021/07/11 08:35:36;;;;;;;5.40;3.33;;;;;;;22.10;56.10;96255.19;4987448;28;20030;-53
2021/07/11 08:38:01;;;;;;;5.40;2.60;;;;;;;22.10;55.85;96249.84;4987618;28;20093;-55
2021/07/11 08:40:26;;;;;;;7.93;2.80;;;;;;;22.11;55.88;96259.41;4987128;28;20022;-54
2021/07/11 08:42:52;;;;;;;4.03;2.65;;;;;;;22.10;55.93;96260.50;4987400;28;20026;-54
2021/07/11 08:45:18;;;;;;;3.92;2.50;;;;;;;22.10;55.83;96263.19;4987532;28;20045;-55
2021/07/11 08:47:43;;;;;;;3.33;2.60;;;;;;;22.10;55.70;96252.50;4987610;28;20037;-53
2021/07/11 08:50:10;;;;;;;6.25;3.00;;;;;;;22.10;55.77;96257.84;4987848;28;20022;-54
2021/07/11 08:52:36;;;;;;;4.57;2.95;;;;;;;22.12;55.80;96254.84;4986410;28;20081;-52
2021/07/11 08:55:23;;;;;;;3.38;2.55;;;;;;;22.12;55.80;96252.94;4987800;28;20072;-52
2021/07/11 08:57:53;;;;;;;3.60;2.45;;;;;;;22.13;56.50;96259.84;4987539;28;20019;-55
2021/07/11 09:00:21;;;;;;;4.55;3.20;;;;;;;22.13;56.45;96253.72;4987090;28;20125;-53
2021/07/11 09:02:47;;;;;;;6.88;2.80;;;;;;;22.14;56.70;96249.94;4987004;28;20066;-52
2021/07/11 09:05:28;;;;;;;5.57;2.67;;;;;;;22.14;57.37;96250.72;4987086;28;20502;-53
2021/07/11 09:07:57;;;;;;;8.93;3.13;;;;;;;22.16;57.45;96254.97;4989149;28;20030;-53
2021/07/11 09:10:30;;;;;;;5.28;2.60;;;;;;;22.15;57.27;96254.16;4991097;28;20093;-52
2021/07/11 09:12:55;;;;;;;3.17;2.47;;;;;;;22.17;57.53;96259.94;4986876;28;20034;-53
2021/07/11 09:15:31;;;;;;;5.30;2.50;;;;;;;22.17;57.14;96262.63;4988056;28;20470;-52
2021/07/11 09:17:57;;;;;;;10.45;3.05;;;;;;;22.18;57.15;96271.44;4990069;28;20030;-53
2021/07/11 09:20:23;;;;;;;4.85;2.65;;;;;;;22.19;57.15;96272.97;4990976;28;20034;-53
2021/07/11 09:22:59;;;;;;;8.43;3.03;;;;;;;22.22;57.01;96266.97;4990500;28;20030;-55
2021/07/11 09:25:25;;;;;;;6.65;2.58;;;;;;;22.23;57.04;96263.19;4986593;28;20034;-52
2021/07/11 09:27:50;;;;;;;5.05;2.72;;;;;;;22.24;57.09;96254.88;4985993;28;20490;-53
2021/07/11 09:30:17;;;;;;;6.45;2.88;;;;;;;22.25;56.90;96250.28;4990562;28;20494;-52
2021/07/11 09:32:43;;;;;;;5.95;2.30;;;;;;;22.25;56.95;96250.28;4991163;28;20080;-53
2021/07/11 09:35:13;;;;;;;5.80;2.95;;;;;;;22.26;56.68;96251.88;4990851;28;20499;-52
2021/07/11 09:37:39;;;;;;;5.28;2.63;;;;;;;22.27;56.52;96258.75;4989660;28;20045;-53
2021/07/11 09:40:06;;;;;;;4.20;2.55;;;;;;;22.28;56.43;96253.06;4990937;28;20038;-53
2021/07/11 09:42:39;;;;;;;4.20;2.58;;;;;;;22.29;56.32;96251.94;4990754;28;20022;-53
2021/07/11 09:45:06;;;;;;;5.53;2.42;;;;;;;22.30;56.37;96252.75;4990540;28;20034;-53
2021/07/11 09:47:32;;;;;;;5.70;2.72;;;;;;;22.31;56.18;96252.38;4989276;28;20487;-53
2021/07/11 09:50:04;;;;;;;4.22;2.90;;;;;;;22.32;56.39;96261.22;4991032;28;20029;-53
2021/07/11 09:52:32;;;;;;;3.45;2.67;;;;;;;22.34;56.06;96258.97;4989963;28;20392;-53
2021/07/11 09:55:02;;;;;;;3.47;2.33;;;;;;;22.37;55.98;96257.50;4991194;28;20109;-53
2021/07/11 09:57:32;;;;;;;5.45;2.60;;;;;;;22.37;56.15;96263.63;4990209;28;20030;-53
2021/07/11 10:00:12;;;;;;;3.20;2.10;;;;;;;22.39;56.00;96265.97;4990428;28;20498;-53
2021/07/11 10:02:39;;;;;;;3.45;2.20;;;;;;;22.39;55.89;96266.75;4990653;28;20030;-52
2021/07/11 10:05:05;;;;;;;3.83;1.98;;;;;;;22.41;55.91;96275.19;4990251;28;20073;-53
2021/07/11 10:07:32;;;;;;;4.60;3.08;;;;;;;22.41;55.80;96266.41;4990061;28;20555;-53
2021/07/11 10:09:57;;;;;;;3.30;2.17;;;;;;;22.42;55.70;96270.66;4990296;28;20109;-53
2021/07/11 10:12:23;;;;;;;5.32;2.25;;;;;;;22.43;55.40;96272.19;4990585;28;20113;-52
2021/07/11 10:14:48;;;;;;;3.22;2.08;;;;;;;22.45;55.61;96264.63;4989278;28;20538;-52
2021/07/11 10:17:14;;;;;;;4.15;2.30;;;;;;;22.46;55.79;96271.53;4981255;28;20025;-52
2021/07/11 10:19:39;;;;;;;2.78;2.38;;;;;;;22.46;55.81;96269.63;4988177;28;20470;-53
2021/07/11 10:22:14;;;;;;;6.57;2.72;;;;;;;22.48;55.67;96272.75;4990165;28;20030;-52
2021/07/11 10:24:41;;;;;;;3.10;2.20;;;;;;;22.50;55.46;96269.75;4990213;28;20092;-53
2021/07/11 10:27:17;;;;;;;4.70;2.60;;;;;;;22.51;55.56;96271.28;4988369;28;20033;-53
2021/07/11 10:29:45;;;;;;;4.55;2.33;;;;;;;22.51;55.56;96269.41;4989927;28;20037;-53
2021/07/11 10:32:29;;;;;;;3.45;2.20;;;;;;;22.55;55.58;96269.50;4988404;28;20034;-54
2021/07/11 10:35:15;;;;;;;2.50;2.20;;;;;;;22.57;55.51;96269.16;4988974;28;20038;-53
2021/07/11 10:37:54;;;;;;;3.83;2.30;;;;;;;22.58;55.17;96270.72;4969077;28;20031;-54
2021/07/11 10:40:21;;;;;;;4.00;2.50;;;;;;;22.59;55.06;96265.03;4989428;28;20058;-52
2021/07/11 10:42:47;;;;;;;3.35;2.20;;;;;;;22.60;55.26;96255.16;4989533;28;20429;-53
2021/07/11 10:45:14;;;;;;;2.90;2.30;;;;;;;22.60;55.30;96257.81;4989813;28;20026;-54
2021/07/11 10:47:40;;;;;;;3.72;2.00;;;;;;;22.62;55.08;96266.28;4989380;28;20513;-52
2021/07/11 10:50:23;;;;;;;2.92;2.22;;;;;;;22.62;54.97;96253.69;4989813;28;20367;-53
2021/07/11 10:52:48;;;;;;;2.30;2.00;;;;;;;22.65;55.18;96257.56;4987982;28;20030;-52
2021/07/11 10:55:14;;;;;;;2.80;2.10;;;;;;;22.66;55.26;96251.13;4988931;28;20390;-54
2021/07/11 10:57:39;;;;;;;2.88;2.30;;;;;;;22.69;54.98;96253.09;4989560;28;20034;-53
2021/07/11 11:00:21;;;;;;;3.22;2.10;;;;;;;22.68;55.30;96249.66;4989291;28;20030;-53
2021/07/11 11:02:48;;;;;;;2.75;2.00;;;;;;;22.70;54.98;96252.00;4989094;28;20205;-53
2021/07/11 11:05:23;;;;;;;2.75;2.10;;;;;;;22.71;55.03;96253.53;4989076;28;20049;-52
2021/07/11 11:08:16;;;;;;;3.38;2.35;;;;;;;22.72;55.22;96250.53;4989746;28;20034;-53
2021/07/11 11:10:42;;;;;;;2.10;1.88;;;;;;;22.73;55.17;96251.31;4988835;28;20460;-53
2021/07/11 11:13:26;;;;;;;2.80;2.08;;;;;;;22.75;55.11;96251.75;4989887;28;20054;-53
2021/07/11 11:15:55;;;;;;;2.00;1.77;;;;;;;22.77;54.80;96256.75;4986959;28;20057;-53
2021/07/11 11:18:21;;;;;;;3.33;1.92;;;;;;;22.78;54.77;96248.41;4983060;28;20061;-53
2021/07/11 11:20:53;;;;;;;4.07;2.17;;;;;;;22.81;55.00;96249.63;4970291;28;20137;-53
2021/07/11 11:23:19;;;;;;;2.47;1.67;;;;;;;22.82;54.76;96245.81;4980594;28;20384;-53
2021/07/11 11:25:45;;;;;;;2.92;1.88;;;;;;;22.83;55.12;96242.78;4978995;28;20097;-52
2021/07/11 11:28:10;;;;;;;3.65;1.90;;;;;;;22.85;54.95;96243.22;4969652;28;20065;-53
2021/07/11 11:30:36;;;;;;;2.55;1.55;;;;;;;22.88;54.50;96244.47;4968759;28;20356;-53